Bergshamra, Sweden

08:58 PM CEST on Maj 21, 2018 (GMT +0200)
Solna Municipality | | Change Station

Elev 0 ft 59.38 °N, 18.04 °E | Updated 36 seconds ago

Klart
Klart
64.2 °F
Feels Like 64.2 °F
N
0.6
Vind Växlande Vind from SV
Gusts 1.2 miles/tim

Idag
High -- | Low -- °F
--% Chance of Precip.
Yesterday
High -- | Low -- °F
Precip. -- tum
Lufttryck 30.24 tum
Sikt -9999.0 miles
Molnigt
Daggpunkt 46 °F
Luftfuktighet 51%
Rainfall 0.00 tum
Snow Depth Not available.
4:02 AM 9:28 PM
Första kvarteret, 46% visible
METAR ESSB 211850Z 16003KT CAVOK 20/07 Q1024
Lufttryck 30.24 tum
Sikt -9999.0 miles
Molnigt
Daggpunkt 46 °F
Luftfuktighet 51%
Rainfall 0.00 tum
Snow Depth Not available.
4:02 AM 9:28 PM
Första kvarteret, 46% visible
METAR ESSB 211850Z 16003KT CAVOK 20/07 Q1024

Get Severe Weather Alerts

Thanks for signing up!

Be on the lookout for a verification email in your inbox.

You'll start receiving the daily forecast at 6 AM.

×

10-Day Weather Forecast

×

Almanac

Astronomi

May. 21, 2018 Rise Set
Actual Time
Civil Twilight
Nautical Twilight
Astronomical Twilight
Månen
Length Of Visible Light
Dagens längd
Tomorrow will be .
, % of the Moon is Illuminated

Today's Extremes

Country Highs Country Lows

Community

WunderPhotos

Category 6

Welcome to Category 6. This is the collective home for Weather Underground's featured writeups by Dr. Jeff Masters (right), Bob Henson (left), Chris Burt, and other regular contributors.

Nearby

Air Quality

  Air Quality AQ Index Pollutant
Not available.

Snödjup

Station Depth Elevation

Earthquake Activity

Stad Distance Mag. Time & Date
Minimum magnitude displayed is 2.5.

Coastal Water Temperatures

Plats Temperatur

Stations

Nearby Weather Stations

Station Location Temp Vindavkylning Daggpunkt Luftfuktighet Vind Precip. Elev Uppdaterad Type